Time;durP1;ratioP1;P1;durP2;ratioP2;P2;SDS_P1;SDS_P2;PMS_P1;PMS_P2;Temp;Humidity;BMP_temperature;BMP_pressure;BME280_temperature;BME280_humidity;BME280_pressure;Samples;Min_cycle;Max_cycle;Signal;HPM_P1;HPM_P2
2023/12/10 00:02:12;;;;;;;33.50;5.68;;;;;;;;;;5050811;28;20044;-80
2023/12/10 00:04:39;;;;;;;33.63;5.43;;;;;;;;;;5048671;28;20316;-81
2023/12/10 00:07:05;;;;;;;40.47;7.13;;;;;;;;;;5045956;28;20083;-82
2023/12/10 00:09:31;;;;;;;34.15;5.07;;;;;;;;;;5049889;28;20497;-78
2023/12/10 00:11:57;;;;;;;31.83;6.20;;;;;;;;;;5061524;28;20040;-78
2023/12/10 00:14:24;;;;;;;30.50;4.65;;;;;;;;;;5046137;28;20136;-78
2023/12/10 00:16:51;;;;;;;37.97;4.80;;;;;;;;;;5079713;28;20063;-76
2023/12/10 00:19:20;;;;;;;33.38;5.25;;;;;;;;;;5039949;28;20040;-78
2023/12/10 00:21:46;;;;;;;29.27;4.68;;;;;;;;;;5017394;28;20049;-76
2023/12/10 00:24:12;;;;;;;33.65;7.30;;;;;;;;;;5085465;28;20130;-77
2023/12/10 00:26:38;;;;;;;32.63;5.05;;;;;;;;;;5065600;28;20059;-77
2023/12/10 00:29:05;;;;;;;36.90;5.07;;;;;;;;;;5067264;28;20483;-77
2023/12/10 00:31:31;;;;;;;22.30;4.05;;;;;;;;;;5051495;28;20119;-78
2023/12/10 00:33:57;;;;;;;36.05;4.40;;;;;;;;;;5041977;28;20428;-78
2023/12/10 00:36:23;;;;;;;36.78;4.82;;;;;;;;;;5048259;28;20080;-77
2023/12/10 00:38:49;;;;;;;29.25;4.75;;;;;;;;;;5048133;28;20128;-78
2023/12/10 00:41:15;;;;;;;37.92;5.10;;;;;;;;;;5035326;28;20062;-78
2023/12/10 00:43:42;;;;;;;41.50;5.32;;;;;;;;;;5083047;28;20450;-77
2023/12/10 00:46:08;;;;;;;27.40;4.72;;;;;;;;;;5051829;28;20131;-78
2023/12/10 00:48:36;;;;;;;26.80;4.28;;;;;;;;;;5069422;28;20043;-78
2023/12/10 00:51:02;;;;;;;29.50;4.68;;;;;;;;;;5073019;28;20063;-78
2023/12/10 00:53:28;;;;;;;22.95;3.47;;;;;;;;;;5084148;28;20035;-77
2023/12/10 00:55:54;;;;;;;31.05;4.43;;;;;;;;;;5053715;28;20498;-79
2023/12/10 00:58:21;;;;;;;28.08;3.63;;;;;;;;;;5034204;28;20032;-77
2023/12/10 01:00:47;;;;;;;28.73;4.88;;;;;;;;;;5049636;28;20044;-77
2023/12/10 01:03:13;;;;;;;34.30;6.65;;;;;;;;;;5079267;28;20155;-77
2023/12/10 01:05:39;;;;;;;21.95;3.97;;;;;;;;;;5022821;28;20407;-77
2023/12/10 01:08:05;;;;;;;28.08;5.25;;;;;;;;;;5064409;28;20094;-77
2023/12/10 01:10:31;;;;;;;24.52;4.88;;;;;;;;;;5034312;28;20498;-77
2023/12/10 01:12:57;;;;;;;22.25;4.32;;;;;;;;;;5031586;28;20036;-78
2023/12/10 01:15:29;;;;;;;24.65;4.03;;;;;;;;;;5081732;28;20040;-78
2023/12/10 01:18:04;;;;;;;19.75;4.07;;;;;;;;;;5064015;28;20543;-77
2023/12/10 01:20:34;;;;;;;25.45;4.75;;;;;;;;;;5039254;28;20480;-78
2023/12/10 01:23:00;;;;;;;23.15;3.63;;;;;;;;;;5067150;28;20083;-82
2023/12/10 01:25:27;;;;;;;22.15;3.75;;;;;;;;;;5061618;28;20147;-82
2023/12/10 01:27:53;;;;;;;23.08;4.90;;;;;;;;;;5078697;28;20044;-82
2023/12/10 01:30:23;;;;;;;17.88;4.13;;;;;;;;;;5051586;28;20598;-81
2023/12/10 01:32:51;;;;;;;15.43;1.98;;;;;;;;;;5032497;28;20511;-81
2023/12/10 01:35:17;;;;;;;18.95;4.90;;;;;;;;;;5081550;28;20075;-82
2023/12/10 01:37:43;;;;;;;23.08;4.55;;;;;;;;;;5033787;28;20036;-81
2023/12/10 01:40:10;;;;;;;25.75;5.40;;;;;;;;;;5064442;28;20395;-81
2023/12/10 01:42:36;;;;;;;21.65;4.13;;;;;;;;;;5048344;28;20044;-81
2023/12/10 01:45:04;;;;;;;22.40;4.70;;;;;;;;;;5036129;28;20522;-81
2023/12/10 01:47:32;;;;;;;26.10;4.88;;;;;;;;;;5046094;28;20507;-81
2023/12/10 01:49:59;;;;;;;25.25;3.60;;;;;;;;;;5035052;28;20044;-81
2023/12/10 01:52:25;;;;;;;16.25;3.28;;;;;;;;;;5049521;28;20041;-80
2023/12/10 01:54:51;;;;;;;26.35;4.95;;;;;;;;;;5033060;28;20055;-80
2023/12/10 01:57:17;;;;;;;21.95;3.78;;;;;;;;;;5048611;28;20487;-82
2023/12/10 01:59:44;;;;;;;21.80;3.90;;;;;;;;;;5062120;28;20062;-81
2023/12/10 02:02:12;;;;;;;22.45;3.63;;;;;;;;;;5069306;28;20059;-81
2023/12/10 02:04:39;;;;;;;19.75;3.72;;;;;;;;;;5050110;28;20054;-81
2023/12/10 02:07:05;;;;;;;28.48;3.75;;;;;;;;;;5050661;28;20093;-80
2023/12/10 02:09:31;;;;;;;25.30;4.00;;;;;;;;;;5076600;28;20116;-80
2023/12/10 02:11:57;;;;;;;28.10;4.80;;;;;;;;;;5065155;28;20440;-81
2023/12/10 02:14:23;;;;;;;20.70;4.00;;;;;;;;;;5064129;28;20029;-81
2023/12/10 02:16:50;;;;;;;26.33;4.93;;;;;;;;;;5059133;28;20040;-80
2023/12/10 02:19:16;;;;;;;30.42;4.25;;;;;;;;;;5028438;28;20040;-81
2023/12/10 02:21:45;;;;;;;13.38;3.90;;;;;;;;;;5053008;28;20031;-82
2023/12/10 02:24:12;;;;;;;25.08;4.68;;;;;;;;;;5059526;28;20044;-82
2023/12/10 02:26:38;;;;;;;25.10;3.95;;;;;;;;;;5051628;28;20036;-82
2023/12/10 02:29:04;;;;;;;30.08;5.03;;;;;;;;;;5062665;28;20127;-75
2023/12/10 02:31:30;;;;;;;33.28;6.03;;;;;;;;;;5048089;28;20055;-78
2023/12/10 02:33:56;;;;;;;26.60;4.82;;;;;;;;;;5038883;28;20054;-79
2023/12/10 02:36:23;;;;;;;23.50;3.90;;;;;;;;;;5082352;28;20032;-75
2023/12/10 02:38:49;;;;;;;23.10;4.63;;;;;;;;;;5050719;28;20040;-76
2023/12/10 02:41:15;;;;;;;26.63;4.78;;;;;;;;;;5064980;28;20368;-79
2023/12/10 02:43:42;;;;;;;23.45;4.07;;;;;;;;;;5046301;28;20149;-77
2023/12/10 02:46:08;;;;;;;24.35;4.63;;;;;;;;;;5062994;28;20060;-79
2023/12/10 02:48:34;;;;;;;24.10;4.45;;;;;;;;;;5049333;28;20071;-76
2023/12/10 02:51:00;;;;;;;23.27;3.92;;;;;;;;;;5043696;28;20041;-78
2023/12/10 02:53:26;;;;;;;29.48;3.80;;;;;;;;;;5077000;28;20127;-75
2023/12/10 02:55:52;;;;;;;29.27;4.40;;;;;;;;;;5047314;28;20036;-75
2023/12/10 02:58:18;;;;;;;19.33;4.20;;;;;;;;;;5079670;28;20081;-78
2023/12/10 03:00:44;;;;;;;17.90;3.50;;;;;;;;;;5034361;28;20048;-76
2023/12/10 03:03:10;;;;;;;23.52;4.55;;;;;;;;;;5048764;28;20525;-76
2023/12/10 03:05:37;;;;;;;29.73;4.50;;;;;;;;;;5032537;28;20036;-76
2023/12/10 03:08:03;;;;;;;15.30;2.38;;;;;;;;;;5078793;28;20457;-75
2023/12/10 03:10:29;;;;;;;31.02;4.25;;;;;;;;;;5068696;28;20040;-75
2023/12/10 03:12:55;;;;;;;28.15;3.80;;;;;;;;;;5049491;28;20036;-78
2023/12/10 03:15:21;;;;;;;13.63;3.10;;;;;;;;;;5050596;28;20070;-77
2023/12/10 03:17:47;;;;;;;24.33;4.50;;;;;;;;;;5046362;28;20040;-76
2023/12/10 03:20:13;;;;;;;28.33;4.10;;;;;;;;;;5066555;28;20062;-77
2023/12/10 03:22:39;;;;;;;21.42;3.78;;;;;;;;;;5049775;28;20041;-78
2023/12/10 03:25:06;;;;;;;17.83;4.45;;;;;;;;;;5052224;28;20980;-76
2023/12/10 03:27:32;;;;;;;25.90;2.92;;;;;;;;;;5030460;28;20032;-76
2023/12/10 03:29:58;;;;;;;18.13;3.10;;;;;;;;;;5060796;28;20040;-76
2023/12/10 03:32:24;;;;;;;22.55;2.97;;;;;;;;;;5034369;28;20689;-77
2023/12/10 03:34:50;;;;;;;28.77;5.43;;;;;;;;;;5059478;28;20492;-76
2023/12/10 03:37:17;;;;;;;23.60;4.38;;;;;;;;;;5039096;28;20113;-75
2023/12/10 03:39:43;;;;;;;30.77;3.75;;;;;;;;;;5064084;28;20040;-76
2023/12/10 03:42:09;;;;;;;26.88;4.00;;;;;;;;;;5063127;28;20094;-80
2023/12/10 03:44:35;;;;;;;22.83;3.65;;;;;;;;;;5061992;28;20095;-76
2023/12/10 03:47:01;;;;;;;20.52;3.97;;;;;;;;;;5028415;28;20052;-78
2023/12/10 03:49:31;;;;;;;19.65;3.72;;;;;;;;;;5043807;28;20036;-77
2023/12/10 03:51:58;;;;;;;25.92;3.97;;;;;;;;;;5067543;28;20036;-76
2023/12/10 03:54:24;;;;;;;22.30;3.30;;;;;;;;;;5038954;28;20040;-80
2023/12/10 03:56:50;;;;;;;19.65;3.67;;;;;;;;;;5078911;28;20051;-77
2023/12/10 03:59:16;;;;;;;23.17;3.83;;;;;;;;;;5068461;28;20032;-76
2023/12/10 04:01:43;;;;;;;27.00;3.90;;;;;;;;;;5055085;28;20507;-77
2023/12/10 04:04:09;;;;;;;13.93;3.60;;;;;;;;;;5049546;28;20044;-75
2023/12/10 04:06:39;;;;;;;29.08;3.67;;;;;;;;;;5061010;28;20127;-74
2023/12/10 04:09:06;;;;;;;10.80;2.55;;;;;;;;;;5054029;28;20036;-74
2023/12/10 04:11:32;;;;;;;20.33;2.75;;;;;;;;;;5037732;28;20142;-74
2023/12/10 04:13:58;;;;;;;14.07;2.78;;;;;;;;;;5048273;28;20487;-75
2023/12/10 04:16:25;;;;;;;20.92;3.28;;;;;;;;;;5036202;28;20037;-77
2023/12/10 04:18:51;;;;;;;17.52;3.00;;;;;;;;;;5050309;28;20486;-74
2023/12/10 04:21:21;;;;;;;15.25;2.55;;;;;;;;;;5067926;28;20131;-75
2023/12/10 04:23:47;;;;;;;13.80;2.22;;;;;;;;;;5039998;28;20048;-74
2023/12/10 04:26:15;;;;;;;14.55;2.22;;;;;;;;;;5051241;28;20048;-77
2023/12/10 04:28:41;;;;;;;10.68;2.72;;;;;;;;;;5078977;28;20047;-74
2023/12/10 04:31:07;;;;;;;18.70;2.22;;;;;;;;;;5078808;28;20134;-74
2023/12/10 04:33:33;;;;;;;9.98;2.28;;;;;;;;;;5069352;28;20549;-76
2023/12/10 04:36:00;;;;;;;9.30;1.98;;;;;;;;;;5038384;28;20044;-75
2023/12/10 04:38:26;;;;;;;6.35;1.40;;;;;;;;;;5050191;28;20479;-74
2023/12/10 04:40:53;;;;;;;11.32;1.80;;;;;;;;;;5067017;28;20525;-75
2023/12/10 04:43:19;;;;;;;12.65;2.42;;;;;;;;;;5051838;28;20127;-74
2023/12/10 04:45:45;;;;;;;4.20;1.38;;;;;;;;;;5033063;28;20036;-75
2023/12/10 04:48:15;;;;;;;8.13;1.35;;;;;;;;;;5049262;28;20056;-75
2023/12/10 04:50:41;;;;;;;7.72;1.65;;;;;;;;;;5047225;28;20040;-82
2023/12/10 04:53:07;;;;;;;7.68;1.58;;;;;;;;;;5063557;28;20050;-77
2023/12/10 04:55:33;;;;;;;7.35;1.65;;;;;;;;;;5031638;28;20064;-79
2023/12/10 04:58:00;;;;;;;11.52;1.70;;;;;;;;;;5083994;28;20129;-79
2023/12/10 05:00:26;;;;;;;6.13;1.27;;;;;;;;;;5063992;28;20083;-80
2023/12/10 05:02:52;;;;;;;5.25;1.40;;;;;;;;;;5076745;28;20082;-79
2023/12/10 05:05:18;;;;;;;9.82;1.70;;;;;;;;;;5019196;28;20478;-81
2023/12/10 05:07:45;;;;;;;5.60;1.45;;;;;;;;;;5031634;28;20045;-79
2023/12/10 05:10:11;;;;;;;6.63;1.48;;;;;;;;;;5066193;28;20112;-78
2023/12/10 05:12:38;;;;;;;6.65;1.50;;;;;;;;;;5048378;28;20041;-77
2023/12/10 05:15:04;;;;;;;11.95;2.25;;;;;;;;;;5046403;28;20458;-82
2023/12/10 05:17:30;;;;;;;12.15;1.80;;;;;;;;;;5014002;28;20483;-82
2023/12/10 05:19:56;;;;;;;9.90;1.67;;;;;;;;;;5050661;28;20118;-81
2023/12/10 05:22:22;;;;;;;9.38;1.63;;;;;;;;;;5039536;28;20047;-83
2023/12/10 05:24:48;;;;;;;14.05;3.40;;;;;;;;;;5029594;28;20037;-79
2023/12/10 05:27:14;;;;;;;10.13;2.08;;;;;;;;;;5063942;28;20132;-83
2023/12/10 05:29:40;;;;;;;13.77;2.30;;;;;;;;;;5031837;28;20036;-83
2023/12/10 05:32:06;;;;;;;8.88;1.85;;;;;;;;;;5044745;28;20040;-81
2023/12/10 05:34:33;;;;;;;20.13;2.90;;;;;;;;;;5079431;28;20132;-82
2023/12/10 05:36:59;;;;;;;10.30;2.10;;;;;;;;;;5046715;28;20040;-81
2023/12/10 05:39:25;;;;;;;9.95;1.92;;;;;;;;;;5050696;28;20156;-80
2023/12/10 05:41:51;;;;;;;12.55;1.70;;;;;;;;;;5039112;28;20041;-83
2023/12/10 05:44:17;;;;;;;9.38;1.88;;;;;;;;;;5080358;28;20094;-81
2023/12/10 05:46:44;;;;;;;11.80;2.47;;;;;;;;;;5079042;28;20068;-83
2023/12/10 05:49:10;;;;;;;12.15;2.08;;;;;;;;;;5075420;28;20033;-81
2023/12/10 05:51:36;;;;;;;15.20;2.22;;;;;;;;;;5063645;28;20098;-81
2023/12/10 05:54:03;;;;;;;9.43;2.15;;;;;;;;;;5048476;28;20037;-82
2023/12/10 05:56:29;;;;;;;13.63;1.92;;;;;;;;;;5068261;28;20090;-82
2023/12/10 05:58:55;;;;;;;16.42;4.30;;;;;;;;;;5060694;28;20048;-75
2023/12/10 06:01:21;;;;;;;9.65;2.30;;;;;;;;;;5047485;28;20063;-82
2023/12/10 06:03:47;;;;;;;11.10;2.47;;;;;;;;;;5049882;28;20044;-77
2023/12/10 06:06:13;;;;;;;16.20;2.40;;;;;;;;;;5064911;28;20131;-81
2023/12/10 06:08:40;;;;;;;21.05;2.30;;;;;;;;;;5034921;28;20117;-81
2023/12/10 06:11:06;;;;;;;11.90;2.25;;;;;;;;;;5050422;28;20037;-81
2023/12/10 06:13:32;;;;;;;12.57;2.17;;;;;;;;;;5078004;28;20558;-77
2023/12/10 06:15:59;;;;;;;21.25;2.60;;;;;;;;;;5079379;28;20900;-81
2023/12/10 06:18:26;;;;;;;17.70;2.42;;;;;;;;;;5050434;28;20127;-82
2023/12/10 06:20:53;;;;;;;18.10;2.78;;;;;;;;;;5040319;28;20043;-81
2023/12/10 06:23:19;;;;;;;20.05;4.30;;;;;;;;;;5070103;28;20542;-82
2023/12/10 06:25:45;;;;;;;29.27;3.65;;;;;;;;;;5038995;28;20044;-80
2023/12/10 06:28:12;;;;;;;24.83;3.53;;;;;;;;;;5046421;28;20086;-81
2023/12/10 06:30:38;;;;;;;25.33;3.22;;;;;;;;;;5062131;28;20128;-82
2023/12/10 06:33:04;;;;;;;30.17;3.88;;;;;;;;;;5062621;28;20057;-82
2023/12/10 06:35:30;;;;;;;22.58;3.33;;;;;;;;;;5022052;28;20055;-82
2023/12/10 06:37:56;;;;;;;30.38;3.30;;;;;;;;;;5052525;28;20123;-81
2023/12/10 06:40:22;;;;;;;35.63;4.25;;;;;;;;;;5037818;28;20075;-82
2023/12/10 06:42:48;;;;;;;26.90;3.63;;;;;;;;;;5037904;28;20431;-81
2023/12/10 06:45:15;;;;;;;27.88;4.32;;;;;;;;;;5059715;28;20047;-82
2023/12/10 06:47:42;;;;;;;32.28;4.10;;;;;;;;;;5034999;28;20057;-81
2023/12/10 06:50:08;;;;;;;30.55;4.30;;;;;;;;;;5048848;28;20047;-82
2023/12/10 06:52:34;;;;;;;28.20;3.47;;;;;;;;;;5053061;28;20064;-82
2023/12/10 06:55:00;;;;;;;43.22;4.57;;;;;;;;;;5040075;28;20098;-82
2023/12/10 06:57:27;;;;;;;31.95;4.53;;;;;;;;;;5057708;28;20073;-82
2023/12/10 06:59:53;;;;;;;32.28;4.13;;;;;;;;;;5038359;28;20139;-81
2023/12/10 07:02:19;;;;;;;32.83;3.88;;;;;;;;;;5052562;28;20040;-81
2023/12/10 07:04:45;;;;;;;33.75;4.57;;;;;;;;;;5067494;28;20480;-80
2023/12/10 07:07:11;;;;;;;37.03;4.97;;;;;;;;;;5066201;28;20122;-82
2023/12/10 07:09:37;;;;;;;41.03;5.93;;;;;;;;;;5055441;28;20471;-81
2023/12/10 07:12:03;;;;;;;39.85;5.15;;;;;;;;;;5081679;28;20475;-83
2023/12/10 07:14:29;;;;;;;29.58;5.38;;;;;;;;;;5054015;28;20445;-80
2023/12/10 07:16:55;;;;;;;34.13;4.57;;;;;;;;;;5083689;28;20176;-80
2023/12/10 07:19:22;;;;;;;35.33;6.25;;;;;;;;;;5033046;28;20040;-82
2023/12/10 07:21:52;;;;;;;41.95;5.40;;;;;;;;;;5033699;28;20045;-83
2023/12/10 07:24:19;;;;;;;35.58;4.88;;;;;;;;;;5050605;28;20051;-82
2023/12/10 07:26:45;;;;;;;49.53;4.93;;;;;;;;;;5053659;28;20044;-83
2023/12/10 07:29:12;;;;;;;36.22;4.80;;;;;;;;;;5049427;28;20472;-83
2023/12/10 07:31:38;;;;;;;31.85;4.40;;;;;;;;;;5063861;28;20041;-80
2023/12/10 07:34:04;;;;;;;29.05;3.97;;;;;;;;;;5046674;28;20041;-83
2023/12/10 07:36:31;;;;;;;35.88;4.32;;;;;;;;;;5067687;28;20406;-81
2023/12/10 07:38:57;;;;;;;32.17;4.47;;;;;;;;;;5064260;28;20048;-80
2023/12/10 07:41:23;;;;;;;44.13;5.28;;;;;;;;;;5062411;28;20075;-79
2023/12/10 07:43:49;;;;;;;43.47;6.80;;;;;;;;;;5045854;28;20060;-83
2023/12/10 07:46:15;;;;;;;43.17;7.35;;;;;;;;;;5045191;28;20151;-83
2023/12/10 07:48:41;;;;;;;38.22;4.25;;;;;;;;;;5044001;28;20102;-78
2023/12/10 07:51:07;;;;;;;38.65;5.03;;;;;;;;;;5064144;28;20470;-83
2023/12/10 07:53:33;;;;;;;38.28;5.00;;;;;;;;;;5055832;28;20041;-80
2023/12/10 07:55:59;;;;;;;36.05;4.90;;;;;;;;;;5072447;28;20511;-82
2023/12/10 07:58:25;;;;;;;38.97;5.43;;;;;;;;;;5039488;28;20476;-88
2023/12/10 08:00:51;;;;;;;40.35;4.93;;;;;;;;;;5068570;28;20068;-84
2023/12/10 08:03:18;;;;;;;44.22;4.85;;;;;;;;;;5038679;28;20115;-83
2023/12/10 08:05:44;;;;;;;51.85;6.50;;;;;;;;;;5032055;28;20124;-81
2023/12/10 08:08:10;;;;;;;46.42;5.32;;;;;;;;;;5085107;28;20418;-82
2023/12/10 08:10:36;;;;;;;37.58;4.97;;;;;;;;;;5046926;28;20070;-83
2023/12/10 08:13:02;;;;;;;41.13;5.45;;;;;;;;;;5049220;28;20033;-82
2023/12/10 08:15:28;;;;;;;43.60;4.82;;;;;;;;;;5060118;28;20036;-83
2023/12/10 08:17:54;;;;;;;37.13;5.40;;;;;;;;;;5049900;28;20075;-83
2023/12/10 08:20:20;;;;;;;35.10;4.57;;;;;;;;;;5053501;28;20479;-77
2023/12/10 08:22:48;;;;;;;44.92;7.10;;;;;;;;;;5066860;28;20487;-78
2023/12/10 08:25:14;;;;;;;31.00;5.43;;;;;;;;;;5051120;28;20126;-77
2023/12/10 08:27:41;;;;;;;36.72;4.20;;;;;;;;;;5047512;28;20087;-77
2023/12/10 08:30:07;;;;;;;35.30;4.97;;;;;;;;;;5041822;28;20159;-76
2023/12/10 08:32:33;;;;;;;30.95;4.18;;;;;;;;;;5065304;28;20041;-77
2023/12/10 08:34:59;;;;;;;37.22;5.53;;;;;;;;;;5067658;28;20040;-76
2023/12/10 08:37:26;;;;;;;41.85;4.45;;;;;;;;;;5044074;28;20131;-77
2023/12/10 08:39:52;;;;;;;20.60;4.30;;;;;;;;;;5045523;28;20497;-77
2023/12/10 08:42:21;;;;;;;31.50;4.20;;;;;;;;;;5065849;28;20400;-77
2023/12/10 08:44:47;;;;;;;22.23;3.38;;;;;;;;;;5052727;28;20547;-79
2023/12/10 08:47:13;;;;;;;21.05;2.92;;;;;;;;;;5034949;28;20044;-78
2023/12/10 08:49:39;;;;;;;22.52;3.03;;;;;;;;;;5050129;28;20070;-76
2023/12/10 08:52:06;;;;;;;14.65;1.98;;;;;;;;;;5062232;28;20037;-75
2023/12/10 08:54:32;;;;;;;19.92;2.58;;;;;;;;;;5064018;28;20039;-75
2023/12/10 08:56:58;;;;;;;23.70;2.83;;;;;;;;;;5059885;28;20037;-75
2023/12/10 08:59:24;;;;;;;23.77;3.03;;;;;;;;;;5046720;28;20041;-76
2023/12/10 09:01:50;;;;;;;33.80;6.47;;;;;;;;;;5076722;28;20040;-78
2023/12/10 09:04:16;;;;;;;16.17;2.90;;;;;;;;;;5043759;28;20384;-78
2023/12/10 09:06:42;;;;;;;22.27;2.47;;;;;;;;;;5061657;28;20045;-77
2023/12/10 09:09:08;;;;;;;36.13;3.03;;;;;;;;;;5048500;28;20036;-76
2023/12/10 09:11:34;;;;;;;18.83;2.88;;;;;;;;;;5029600;28;20222;-80
2023/12/10 09:14:00;;;;;;;14.23;2.03;;;;;;;;;;5031770;28;20067;-76
2023/12/10 09:16:26;;;;;;;19.45;2.38;;;;;;;;;;5031413;28;20158;-77
2023/12/10 09:18:53;;;;;;;19.80;2.55;;;;;;;;;;5064520;28;20055;-76
2023/12/10 09:21:19;;;;;;;22.80;2.75;;;;;;;;;;5018184;28;20131;-75
2023/12/10 09:23:45;;;;;;;16.33;2.50;;;;;;;;;;5043142;28;20171;-76
2023/12/10 09:26:11;;;;;;;13.05;2.72;;;;;;;;;;5046555;28;20424;-76
2023/12/10 09:28:37;;;;;;;25.27;3.50;;;;;;;;;;5063675;28;20376;-76
2023/12/10 09:31:03;;;;;;;30.17;2.85;;;;;;;;;;5029610;28;20075;-76
2023/12/10 09:33:31;;;;;;;22.52;2.78;;;;;;;;;;5029676;28;20086;-77
2023/12/10 09:35:57;;;;;;;27.55;3.38;;;;;;;;;;5079376;28;20064;-77
2023/12/10 09:38:23;;;;;;;20.60;4.20;;;;;;;;;;5059801;28;20092;-75
2023/12/10 09:40:49;;;;;;;28.70;3.75;;;;;;;;;;5024840;28;20037;-78
2023/12/10 09:43:15;;;;;;;32.97;3.47;;;;;;;;;;5041414;28;20044;-78
2023/12/10 09:45:41;;;;;;;21.42;3.58;;;;;;;;;;5043222;28;20075;-77
2023/12/10 09:48:07;;;;;;;26.73;3.47;;;;;;;;;;5061704;28;20486;-77
2023/12/10 09:50:40;;;;;;;28.80;3.83;;;;;;;;;;5078307;28;20043;-76
2023/12/10 09:53:07;;;;;;;39.97;5.28;;;;;;;;;;5078498;28;20045;-77
2023/12/10 09:55:33;;;;;;;25.98;2.95;;;;;;;;;;5045717;28;20419;-76
2023/12/10 09:58:00;;;;;;;33.17;4.53;;;;;;;;;;5018180;28;20110;-77
2023/12/10 10:00:26;;;;;;;41.03;4.65;;;;;;;;;;5039859;28;20036;-76
2023/12/10 10:02:59;;;;;;;47.35;5.38;;;;;;;;;;5063479;28;20044;-76
2023/12/10 10:05:25;;;;;;;37.03;3.93;;;;;;;;;;5061596;28;20787;-78
2023/12/10 10:07:51;;;;;;;35.28;3.67;;;;;;;;;;5047944;28;20119;-77
2023/12/10 10:10:20;;;;;;;23.42;3.83;;;;;;;;;;5063561;28;20048;-77
2023/12/10 10:12:46;;;;;;;28.05;4.88;;;;;;;;;;5061244;28;20055;-77
2023/12/10 10:15:12;;;;;;;29.35;3.72;;;;;;;;;;5056765;28;20044;-77
2023/12/10 10:17:38;;;;;;;27.48;3.85;;;;;;;;;;5046121;28;20040;-77
2023/12/10 10:20:04;;;;;;;21.38;3.45;;;;;;;;;;5059473;28;20480;-77
2023/12/10 10:22:30;;;;;;;30.95;3.70;;;;;;;;;;5028575;28;20399;-77
2023/12/10 10:24:57;;;;;;;28.75;3.80;;;;;;;;;;5080420;28;20075;-80
2023/12/10 10:27:23;;;;;;;27.13;3.60;;;;;;;;;;5044983;28;20040;-77
2023/12/10 10:29:53;;;;;;;23.95;3.53;;;;;;;;;;5044007;28;20742;-76
2023/12/10 10:32:20;;;;;;;28.35;4.57;;;;;;;;;;5074873;28;20045;-77
2023/12/10 10:34:47;;;;;;;19.83;2.85;;;;;;;;;;5043638;28;20060;-76
2023/12/10 10:37:15;;;;;;;22.85;3.42;;;;;;;;;;5030757;28;20097;-79
2023/12/10 10:39:41;;;;;;;23.83;3.15;;;;;;;;;;5034981;28;20496;-77
2023/12/10 10:42:09;;;;;;;29.23;3.65;;;;;;;;;;5061493;28;20044;-77
2023/12/10 10:44:39;;;;;;;27.85;3.42;;;;;;;;;;5075486;28;20036;-76
2023/12/10 10:47:06;;;;;;;31.73;3.90;;;;;;;;;;5060871;28;20071;-76
2023/12/10 10:49:34;;;;;;;25.75;3.28;;;;;;;;;;5048270;28;20060;-77
2023/12/10 10:52:02;;;;;;;21.27;3.83;;;;;;;;;;5061256;28;20602;-76
2023/12/10 10:54:29;;;;;;;21.98;3.28;;;;;;;;;;5044134;28;20036;-78
2023/12/10 10:56:55;;;;;;;24.27;3.53;;;;;;;;;;5060051;28;20470;-75
2023/12/10 10:59:31;;;;;;;23.98;3.67;;;;;;;;;;5031532;28;20056;-76
2023/12/10 11:01:59;;;;;;;30.27;4.90;;;;;;;;;;5049901;28;20051;-77
2023/12/10 11:04:25;;;;;;;26.67;4.40;;;;;;;;;;5063719;28;20043;-75
2023/12/10 11:06:53;;;;;;;26.27;4.47;;;;;;;;;;5060474;28;20048;-77
2023/12/10 11:09:19;;;;;;;27.73;4.82;;;;;;;;;;5064312;28;20044;-76
2023/12/10 11:11:45;;;;;;;26.48;3.55;;;;;;;;;;5033052;28;20141;-78
2023/12/10 11:14:19;;;;;;;18.98;4.40;;;;;;;;;;5047001;28;20487;-77
2023/12/10 11:16:45;;;;;;;;;;;;;;;;;;5062379;28;20067;-78
2023/12/10 11:19:14;;;;;;;30.05;3.58;;;;;;;;;;5043019;28;19920;-77
2023/12/10 11:21:40;;;;;;;28.20;4.00;;;;;;;;;;5065259;28;20073;-77
2023/12/10 11:24:06;;;;;;;20.30;4.32;;;;;;;;;;5046649;28;20175;-80
2023/12/10 11:26:33;;;;;;;27.75;5.07;;;;;;;;;;5047786;28;20491;-78
2023/12/10 11:28:59;;;;;;;35.20;4.25;;;;;;;;;;5053681;28;20036;-81
2023/12/10 11:31:25;;;;;;;28.55;4.53;;;;;;;;;;5045747;28;20040;-79
2023/12/10 11:33:51;;;;;;;29.13;4.78;;;;;;;;;;5049039;28;20032;-78
2023/12/10 11:36:17;;;;;;;22.55;3.90;;;;;;;;;;5028597;28;20036;-78
2023/12/10 11:38:46;;;;;;;31.67;4.93;;;;;;;;;;5059314;28;20169;-78
2023/12/10 11:41:13;;;;;;;31.38;5.25;;;;;;;;;;5033513;28;20484;-78
2023/12/10 11:43:42;;;;;;;31.90;5.95;;;;;;;;;;5046698;28;20048;-78
2023/12/10 11:46:08;;;;;;;26.80;5.03;;;;;;;;;;5032884;28;20086;-77
2023/12/10 11:48:34;;;;;;;28.42;6.05;;;;;;;;;;5019175;28;20048;-78
2023/12/10 11:51:01;;;;;;;36.47;6.03;;;;;;;;;;5052217;28;20059;-83
2023/12/10 11:53:27;;;;;;;24.50;3.95;;;;;;;;;;5046646;28;20103;-82
2023/12/10 11:55:53;;;;;;;30.05;4.25;;;;;;;;;;5046011;28;20041;-82
2023/12/10 11:58:30;;;;;;;28.40;3.45;;;;;;;;;;5035940;28;20064;-83
2023/12/10 12:00:57;;;;;;;31.02;3.50;;;;;;;;;;5045322;28;20427;-83
2023/12/10 12:03:23;;;;;;;25.40;4.53;;;;;;;;;;5064295;28;20553;-83
2023/12/10 12:05:53;;;;;;;31.25;4.05;;;;;;;;;;5066443;28;20071;-83
2023/12/10 12:08:20;;;;;;;26.63;4.53;;;;;;;;;;5039159;28;20124;-83
2023/12/10 12:10:50;;;;;;;29.35;4.53;;;;;;;;;;5083597;28;20487;-83
2023/12/10 12:13:17;;;;;;;36.88;5.55;;;;;;;;;;5033303;28;20519;-82
2023/12/10 12:15:47;;;;;;;29.95;4.63;;;;;;;;;;5067400;28;20041;-82
2023/12/10 12:18:13;;;;;;;44.25;5.43;;;;;;;;;;5072867;28;20043;-82
2023/12/10 12:20:39;;;;;;;22.33;3.85;;;;;;;;;;5037386;28;20065;-83
2023/12/10 12:23:05;;;;;;;27.65;4.38;;;;;;;;;;5067306;28;20050;-81
2023/12/10 12:25:35;;;;;;;23.73;4.35;;;;;;;;;;5085050;28;20037;-83
2023/12/10 12:28:07;;;;;;;25.20;4.45;;;;;;;;;;5071779;28;20048;-80
2023/12/10 12:30:37;;;;;;;29.08;3.72;;;;;;;;;;5053952;28;20043;-84
2023/12/10 12:33:04;;;;;;;33.35;4.95;;;;;;;;;;5039549;28;20044;-81
2023/12/10 12:35:30;;;;;;;27.27;4.30;;;;;;;;;;5044035;28;20036;-84
2023/12/10 12:37:59;;;;;;;31.40;5.10;;;;;;;;;;5073760;28;20044;-84
2023/12/10 12:40:25;;;;;;;37.47;4.32;;;;;;;;;;5040564;28;20050;-83
2023/12/10 12:42:52;;;;;;;31.65;4.68;;;;;;;;;;5053925;28;20051;-84
2023/12/10 12:45:19;;;;;;;37.08;4.72;;;;;;;;;;5057287;28;20033;-82
2023/12/10 12:47:45;;;;;;;31.88;4.35;;;;;;;;;;5072449;28;20045;-84
2023/12/10 12:50:14;;;;;;;33.50;4.50;;;;;;;;;;5071030;28;20048;-83
2023/12/10 12:52:41;;;;;;;35.30;5.20;;;;;;;;;;5051896;28;20041;-83
2023/12/10 12:55:07;;;;;;;24.33;5.20;;;;;;;;;;5040238;28;20499;-82
2023/12/10 12:57:33;;;;;;;30.90;4.07;;;;;;;;;;5071743;28;20036;-85
2023/12/10 12:59:59;;;;;;;33.78;6.03;;;;;;;;;;5036213;28;20032;-79
2023/12/10 13:02:25;;;;;;;28.08;4.60;;;;;;;;;;5067675;28;20047;-78
2023/12/10 13:04:51;;;;;;;39.72;6.45;;;;;;;;;;5072498;28;20067;-80
2023/12/10 13:07:17;;;;;;;38.00;5.43;;;;;;;;;;5039724;28;20040;-79
2023/12/10 13:09:43;;;;;;;32.67;6.45;;;;;;;;;;5066581;28;20040;-78
2023/12/10 13:12:10;;;;;;;28.50;4.20;;;;;;;;;;5051987;28;20080;-77
2023/12/10 13:14:37;;;;;;;33.03;6.07;;;;;;;;;;5079419;28;20045;-79
2023/12/10 13:17:04;;;;;;;26.02;4.63;;;;;;;;;;5064702;28;20068;-78
2023/12/10 13:19:30;;;;;;;37.05;5.32;;;;;;;;;;5065289;28;20502;-78
2023/12/10 13:21:56;;;;;;;40.83;5.18;;;;;;;;;;5067020;28;20044;-78
2023/12/10 13:24:22;;;;;;;31.92;6.07;;;;;;;;;;5039670;28;20066;-78
2023/12/10 13:26:48;;;;;;;40.17;5.70;;;;;;;;;;5067506;28;20049;-78
2023/12/10 13:29:15;;;;;;;27.38;4.63;;;;;;;;;;5052343;28;20044;-76
2023/12/10 13:31:41;;;;;;;33.75;6.18;;;;;;;;;;5083169;28;20032;-77
2023/12/10 13:34:07;;;;;;;33.50;4.65;;;;;;;;;;5062242;28;20044;-78
2023/12/10 13:36:34;;;;;;;28.60;4.63;;;;;;;;;;5062322;28;20048;-79
2023/12/10 13:39:03;;;;;;;34.50;4.82;;;;;;;;;;5065687;28;20052;-77
2023/12/10 13:41:29;;;;;;;27.67;4.10;;;;;;;;;;5048826;28;20040;-78
2023/12/10 13:43:55;;;;;;;38.83;5.97;;;;;;;;;;5079027;28;20056;-78
2023/12/10 13:46:21;;;;;;;30.63;5.45;;;;;;;;;;5031594;28;20119;-78
2023/12/10 13:48:48;;;;;;;44.63;5.20;;;;;;;;;;5066972;28;20059;-76
2023/12/10 13:51:14;;;;;;;37.08;4.70;;;;;;;;;;5067869;28;20043;-77
2023/12/10 13:53:40;;;;;;;37.67;5.40;;;;;;;;;;5061346;28;20037;-76
2023/12/10 13:56:07;;;;;;;46.30;8.07;;;;;;;;;;5066095;28;20049;-77
2023/12/10 13:58:33;;;;;;;27.27;4.43;;;;;;;;;;5062159;28;20044;-77
2023/12/10 14:01:00;;;;;;;27.23;4.38;;;;;;;;;;5047953;28;20590;-77
2023/12/10 14:03:26;;;;;;;24.23;4.13;;;;;;;;;;5080615;28;20083;-80
2023/12/10 14:05:52;;;;;;;37.53;5.22;;;;;;;;;;5061112;28;20047;-78
2023/12/10 14:08:18;;;;;;;35.40;4.72;;;;;;;;;;5081115;28;20110;-78
2023/12/10 14:10:45;;;;;;;28.42;5.50;;;;;;;;;;5047736;28;20174;-84
2023/12/10 14:13:11;;;;;;;25.70;5.07;;;;;;;;;;5029655;28;20056;-82
2023/12/10 14:15:37;;;;;;;33.72;4.93;;;;;;;;;;5065189;28;20043;-83
2023/12/10 14:18:03;;;;;;;36.83;4.75;;;;;;;;;;5028738;28;20457;-84
2023/12/10 14:20:29;;;;;;;22.55;4.32;;;;;;;;;;5062107;28;20033;-83
2023/12/10 14:22:56;;;;;;;31.05;5.00;;;;;;;;;;5064520;28;20129;-81
2023/12/10 14:25:22;;;;;;;29.33;4.57;;;;;;;;;;5062098;28;20359;-83
2023/12/10 14:27:49;;;;;;;30.10;4.53;;;;;;;;;;5080165;28;20040;-83